x

Grand Traverse Light, Mi (gtlm4) Weather Station

11:40pm - Fri 24th Feb 2017 All times are CST. -6 hours from GMT.

  • Wind
    2mph, 3mph gusts
  • Air Temp 31°f
  • Sea Pressure 998mb
  • Grand Traverse Light, Mi
  • Grand Traverse Light, Mi

More Historic Weather Station data

Upgrade to MSW Pro to gain access to the past 30 days of data for over 8000 Wavebouys and Weather Stations around the globe.

Join Pro

Comparision Forecast

View Surf forecast
   
Fri 02/24 11:40pm 2 3 mph 998mb 31f
11:30pm 3 5 mph 998mb 31f
11:20pm 3 5 mph 997.6mb 31f
11:10pm 5
mph
998.3mb 31f
11:01pm 5
mph
998.3mb 31f
11:00pm 5
mph
998.3mb 31f
10:40pm 3 5 mph 997.6mb 31f
10:30pm 5
mph
998.3mb 31f
10:20pm 3
mph
998.3mb 31f
10:10pm 3
mph
998.6mb 31f
10:01pm 3 5 mph 998.3mb 31f
10:00pm 3
mph
998.3mb 31f
9:40pm 3 5 mph 998mb 32f
9:30pm 5
mph
998mb 32f
9:20pm 5
mph
998.3mb 31f
9:10pm 5
mph
998.6mb 31f
9:00pm 5 7 mph 998.6mb 31f
8:40pm 5 6 mph 999.3mb 32f
8:30pm 5 6 mph 999.3mb 32f
8:20pm 6 7 mph 999.3mb 32f
8:10pm 6 7 mph 999.3mb 32f
8:00pm 7 8 mph 999.7mb 32f
7:40pm 8 9 mph 1000mb 32f
7:30pm 8 11 mph 1000.3mb 32f
7:20pm 10 13 mph 1000mb 32f
7:10pm 11 15 mph 1000.3mb 32f
7:00pm 13 16 mph 1000.3mb 32f
6:40pm 16 18 mph 1000.7mb 32f
6:30pm 18 22 mph 1001mb 32f
6:20pm 20 24 mph 1001mb 32f
6:10pm 23 26 mph 1001mb 32f
6:00pm 23 26 mph 1001mb 32f
5:46pm 24
mph
1000.7mb 32f
5:40pm 25 32 mph 1001mb 32f
5:30pm 28 31 mph 1000.7mb 32f
5:29pm 28 29 mph 1000.7mb 32f
5:20pm 28 30 mph 1000.7mb 32f
5:10pm 26 33 mph 1001mb 32f
5:00pm 29 33 mph 1001mb 32f
4:46pm 28
mph
1001.4mb 32f
4:40pm 29 33 mph 1000.7mb 33f
4:30pm 28 32 mph 1001.4mb 32f
4:28pm 25 29 mph 1001.7mb 32f
4:20pm 26 32 mph 1001.7mb 32f
4:10pm 29 32 mph 1001mb 32f
4:00pm 26 31 mph 1001.4mb 32f
3:45pm 24
mph
1001.7mb 33f
3:40pm 26 31 mph 1001.7mb 33f
3:30pm 28 30 mph 1001mb 33f
3:20pm 22 25 mph 1001.7mb 33f
3:10pm 23 25 mph 1001.4mb 33f
3:00pm 22 24 mph 1001.4mb 33f
2:45pm 20 24 mph 1001.7mb 33f
2:40pm 21 23 mph 1002mb 33f
2:30pm 20 24 mph 1002mb 34f
2:20pm 18 23 mph 1002.4mb 33f
2:10pm 18 24 mph 1002.4mb 33f
2:00pm 22 25 mph 1002mb 33f
1:44pm 22
mph
1002.7mb 33f
1:40pm 22 23 mph 1003mb 33f
1:30pm 22 30 mph 1002.7mb 33f
1:20pm 26 30 mph 1002.4mb 33f
1:10pm 28 31 mph 1002.7mb 33f
1:07pm 28 29 mph 1002.7mb 33f
1:00pm 28 32 mph 1003mb 33f
12:40pm 29 32 mph 1003.4mb 33f
12:30pm 28 31 mph 1003mb 33f
12:20pm 26 32 mph 1003.7mb 33f
12:10pm 28 31 mph 1003.4mb 33f
12:06pm 25 29 mph 1003.4mb 33f
12:00pm 23 26 mph 1004.1mb 32f
11:40am 24 26 mph 1004.7mb 31f
11:30am 23 31 mph 1005.4mb 31f
11:20am 29 32 mph 1004.7mb 31f
11:10am 25 30 mph 1005.4mb 31f
11:00am 25 36 mph 1005.8mb 31f
10:43am 30
mph
1005.1mb 30f
10:40am 30 40 mph 1005.1mb 30f
10:30am 32 37 mph 1005.8mb 30f
10:20am 31
mph
1006.1mb 30f
10:10am 32 37 mph 1005.8mb 30f
10:00am 31 38 mph 1007.1mb 30f
9:43am 31
mph
1006.8mb 29f
9:40am 33 38 mph 1006.8mb 29f
9:30am 33 40 mph 1006.4mb 29f
9:20am 34 36 mph 1006.8mb 29f
9:10am 31 36 mph 1007.5mb 30f
9:00am 23 28 mph 1009.5mb 30f
8:40am 24 30 mph 1007.1mb 29f
8:30am 28 31 mph 1006.4mb 30f
8:20am 26 29 mph 1006.8mb 30f
8:10am 23 26 mph 1007.1mb 30f
8:00am 15 26 mph 1009.5mb 30f
7:42am 24
mph
1007.8mb 30f
7:40am 22 28 mph 1007.8mb 30f
7:30am 24 32 mph 1007.5mb 29f
7:20am 29 33 mph 1006.4mb 29f
7:10am 28 34 mph 1006.8mb 29f
7:00am 30 34 mph 1006.8mb 29f
6:44am 28 30 mph 1007.8mb 29f
6:40am 28 32 mph 1007.8mb 29f
6:30am 29 32 mph 1008.5mb 29f
6:20am 30 36 mph 1008.5mb 29f
6:10am 34 37 mph 1008.5mb 29f
6:00am 31 34 mph 1009.1mb 29f
5:44am 26 29 mph 1009.8mb 29f
5:40am 31 34 mph 1009.5mb 29f
5:30am 28 32 mph 1010.2mb 29f
5:20am 29 31 mph 1010.5mb 29f
5:10am 26 30 mph 1010.8mb 29f
5:00am 25 29 mph 1010.8mb 30f
4:43am 25 29 mph 1010.8mb 30f
4:40am 22 26 mph 1011.2mb 30f
4:30am 23 26 mph 1010.8mb 30f
4:20am 23 25 mph 1010.8mb 30f
4:10am 21 23 mph 1010.5mb 29f
4:00am 21 24 mph 1010.8mb 29f
3:40am 21 31 mph 1010.8mb 29f
3:30am 26 31 mph 1010.5mb 29f
3:22am 25 30 mph 1010.8mb 29f
3:20am 24 28 mph 1011.2mb 29f
3:10am 21 26 mph 1011.5mb 31f
3:00am 20 22 mph 1012.2mb 32f
2:40am 18 21 mph 1012.2mb 33f
2:30am 20 24 mph 1011.9mb 33f
2:20am 23 26 mph 1011.5mb 33f
2:10am 24 26 mph 1011.2mb 33f
2:00am 25 26 mph 1011.2mb 32f
1:40am 24 25 mph 1011.9mb 33f
1:30am 23 26 mph 1011.9mb 33f
1:20am 23
mph
1012.2mb 33f
1:13am 22 29 mph 1012.2mb 33f
1:10am 23 26 mph 1012.5mb 33f
1:00am 23 26 mph 1012.9mb 33f
12:40am 22 24 mph 1012.9mb 33f
12:30am 18 22 mph 1013.2mb 33f
12:20am 17 21 mph 1013.5mb 33f
12:10am 18 21 mph 1013.9mb 33f
12:00am 17 20 mph 1014.2mb 33f
Thu 02/23 11:50pm 18 21 mph 1014.2mb 33f
11:40pm 17 21 mph 1014.2mb 33f
11:30pm 18 21 mph 1014.6mb 33f
11:20pm 17 22 mph 1014.2mb 33f
11:10pm 20 22 mph 1014.2mb 33f
11:00pm 18 20 mph 1014.6mb 33f
10:40pm 17 20 mph 1014.2mb 33f
10:30pm 16 18 mph 1014.6mb 33f
10:20pm 16 18 mph 1014.6mb 33f
10:10pm 15 21 mph 1014.6mb 33f
10:00pm 18 21 mph 1014.6mb 33f
9:50pm 17 18 mph 1014.6mb 33f
9:40pm 17 22 mph 1014.6mb 33f
9:30pm 17 20 mph 1014.6mb 33f
9:20pm 17 20 mph 1014.9mb 33f
9:10pm 17 20 mph 1014.6mb 33f
9:00pm 17 18 mph 1014.6mb 33f
8:50pm 16 18 mph 1014.2mb 33f
8:40pm 15 17 mph 1014.6mb 34f
8:30pm 15 17 mph 1014.6mb 34f
8:20pm 15 16 mph 1014.6mb 34f
8:10pm 14 15 mph 1014.6mb 34f
8:00pm 13 15 mph 1014.6mb 34f
7:50pm 14 15 mph 1014.6mb 34f
7:30pm 17 20 mph 1014.2mb 34f
7:20pm 16 20 mph 1014.2mb 34f
7:10pm 17 20 mph 1014.2mb 34f
7:00pm 17 21 mph 1014.2mb 34f
6:50pm 18 20 mph 1014.2mb 34f
6:40pm 16 20 mph 1014.2mb 35f
6:30pm 14 16 mph 1014.2mb 35f
6:20pm 8 13 mph 1014.2mb 35f
6:10pm 8 11 mph 1014.2mb 35f
6:00pm 7 9 mph 1013.9mb 34f
5:50pm 3 5 mph 1013.5mb 33f
5:40pm 3 5 mph 1013.2mb 33f
5:30pm 1 5 mph 1013.2mb 33f
5:20pm 5 6 mph 1013.2mb 34f
5:10pm 5 6 mph 1013.2mb 35f
5:00pm 5 7 mph 1013.2mb 35f
4:50pm 6
mph
1013.2mb 35f
4:40pm 5 8 mph 1012.9mb 35f
4:30pm 8 9 mph 1012.5mb 36f
4:20pm 6 7 mph 1012.5mb 37f
4:10pm 5 7 mph 1012.9mb 38f
4:00pm 6 8 mph 1012.9mb 38f
3:50pm 7 10 mph 1012.5mb 38f
3:40pm 7 9 mph 1012.5mb 38f
3:30pm 8 9 mph 1012.5mb 38f
3:20pm 8 9 mph 1012.5mb 38f
3:10pm 8 9 mph 1012.5mb 38f
3:00pm 9 10 mph 1012.5mb 38f
2:50pm 9 10 mph 1012.2mb 38f
2:40pm 8 13 mph 1012.2mb 38f
2:30pm 9 10 mph 1012.2mb 38f
2:20pm 10 11 mph 1012.5mb 39f
2:10pm 10 14 mph 1012.5mb 38f
2:00pm 10 15 mph 1012.2mb 37f
1:50pm 13 16 mph 1012.2mb 37f
1:40pm 11 18 mph 1012.2mb 37f
1:30pm 17 20 mph 1012.2mb 37f
1:20pm 15 17 mph 1012.2mb 37f
1:10pm 16 18 mph 1012.2mb 37f
1:00pm 16 18 mph 1012.2mb 37f
12:50pm 17 20 mph 1011.9mb 37f
12:40pm 15 17 mph 1011.9mb 36f
12:30pm 14 16 mph 1011.9mb 36f
12:20pm 13 17 mph 1011.9mb 36f
12:10pm 14 16 mph 1011.9mb 36f
12:00pm 13 16 mph 1011.9mb 36f
11:50am 15 17 mph 1011.9mb 37f
11:40am 14 20 mph 1011.5mb 37f
11:30am 17 21 mph 1011.2mb 37f
11:20am 15 20 mph 1011.2mb 37f
11:10am 16 20 mph 1010.8mb 37f
11:00am 14 17 mph 1010.5mb 37f
10:50am 14 17 mph 1010.2mb 37f
10:40am 13 14 mph 1010.2mb 37f
10:30am 11 16 mph 1010.2mb 37f
10:20am 13 17 mph 1010.2mb 37f
10:10am 15 17 mph 1010.2mb 37f
10:00am 14 17 mph 1010.2mb 36f
9:50am 16 18 mph 1009.8mb 36f
9:40am 14 17 mph 1009.8mb 36f
9:30am 15 17 mph 1010.2mb 36f
9:20am 13 16 mph 1010.2mb 36f
9:10am 10 11 mph 1010.2mb 36f
9:00am 11 22 mph 1010.2mb 35f
8:50am 11 15 mph 1010.2mb 35f
8:40am 13 20 mph 1009.5mb 35f
8:30am 17 21 mph 1009.1mb 35f
8:20am 16 20 mph 1009.1mb 35f
8:10am 18 22 mph 1008.8mb 35f
8:00am 15 18 mph 1008.5mb 35f
7:50am 14 20 mph 1008.5mb 35f
7:40am 17 23 mph 1007.8mb 35f
7:30am 18 23 mph 1006.8mb 35f
7:20am 17 23 mph 1006.8mb 35f
7:10am 18 22 mph 1006.4mb 35f
7:00am 18 23 mph 1006.4mb 35f
6:40am 16 21 mph 1005.8mb 35f
6:30am 17 22 mph 1005.8mb 36f
6:20am 17 22 mph 1005.4mb 36f
6:10am 18 22 mph 1005.1mb 36f
6:00am 17 23 mph 1005.1mb 36f
5:50am 20 22 mph 1005.1mb 36f
5:40am 15 17 mph 1004.7mb 36f
5:30am 15 18 mph 1004.7mb 36f
5:20am 15 21 mph 1004.4mb 36f
5:10am 16 20 mph 1004.4mb 36f
5:00am 15 21 mph 1004.4mb 36f
4:50am 15 18 mph 1003.7mb 36f
4:40am 16 20 mph 1003.7mb 36f
4:30am 16 21 mph 1003.7mb 36f
4:20am 15 22 mph 1003.7mb 36f
4:10am 16 18 mph 1003.4mb 36f
4:00am 14 17 mph 1003mb 36f
3:50am 15 18 mph 1002.7mb 36f
2:50am 17 22 mph 1001.7mb 37f
1:50am 1 2 mph 1000.3mb 40f
12:50am 5 9 mph 1000mb 38f
Wed 02/22 11:50pm 9 11 mph 1000mb 38f
10:50pm 10 11 mph 1000.7mb 39f
9:50pm 2 9 mph 1001mb 44f
8:50pm 2 5 mph 1002.7mb 41f
7:50pm 6 11 mph 1002.7mb 40f
6:50pm 6 8 mph 1004.1mb -
5:50pm 11 13 mph 1003.4mb -
4:50pm 8 10 mph 1002.7mb -
3:50pm 2 7 mph 1002.4mb -
2:50pm 13 21 mph 1002mb -
1:50pm 5 8 mph 1002.4mb 49f
12:50pm 13
mph
1003.7mb 49f
11:50am 3 6 mph 1005.1mb 44f
10:50am 7 11 mph 1004.4mb 49f
9:50am 6 16 mph 1005.4mb 56f
8:50am 7 11 mph 1006.1mb 52f
7:50am 7 15 mph 1006.4mb 46f
6:50am 9 14 mph 1006.8mb 44f
4:40am 9 15 mph 1007.1mb 46f
4:30am 8 14 mph 1007.5mb 45f
4:20am 8 16 mph 1007.5mb 44f
4:10am 6 10 mph 1007.8mb 44f
4:00am 5 11 mph 1007.8mb 43f
3:40am 5 9 mph 1008.5mb 43f
3:30am 7 10 mph 1008.1mb 44f
3:20am 6 9 mph 1008.1mb 44f
3:10am 5 11 mph 1008.5mb 44f
3:00am 6 9 mph 1008.5mb 44f
2:40am 6 9 mph 1008.5mb 44f
2:30am 6 11 mph 1008.5mb 44f
2:20am 6 10 mph 1008.5mb 43f
2:10am 2 7 mph 1008.8mb 42f
2:01am 5 6 mph 1009.1mb 43f
2:00am 5 6 mph 1008.8mb 43f
1:40am  -  1 mph 1009.5mb 43f
1:30am 2 3 mph 1009.5mb 43f
1:20am 3 6 mph 1009.8mb 42f
1:10am  -  5 mph 1009.5mb 43f
1:00am 3
mph
1009.8mb 42f
12:40am 8 11 mph 1009.1mb 44f
12:30am 6 14 mph 1010.2mb 47f
12:20am 7 13 mph 1009.5mb 46f
12:10am 8 33 mph 1009.8mb 47f
12:02am 14 33 mph 1009.5mb 47f
12:00am 17 23 mph 1009.5mb 47f
Tue 02/21 11:40pm 8 16 mph 1009.1mb 47f
11:30pm 9 16 mph 1009.1mb 47f
11:20pm 7 14 mph 1009.8mb 46f
11:10pm 8 13 mph 1009.8mb 46f
11:00pm 6 28 mph 1010.5mb 47f
10:40pm 6 13 mph 1009.8mb 47f
10:30pm 8 14 mph 1009.8mb 47f
10:20pm 6 11 mph 1010.2mb 46f
10:10pm 7 15 mph 1010.2mb 46f
10:00pm 5 11 mph 1010.5mb 47f
9:40pm 7 14 mph 1010.2mb 47f
9:30pm 7 16 mph 1010.2mb 46f
9:20pm 7 14 mph 1010.5mb 46f
9:10pm 7 15 mph 1010.5mb 45f
9:00pm 8 15 mph 1010.2mb 45f
8:40pm 7 11 mph 1010.5mb 44f
8:30pm 6 11 mph 1010.8mb 43f
8:20pm 5 8 mph 1010.5mb 41f
8:10pm 3 6 mph 1010.8mb 40f
8:00pm 3 9 mph 1010.8mb 39f
7:40pm 3 6 mph 1011.2mb 37f
7:30pm 2 6 mph 1011.2mb 37f
7:20pm 3 5 mph 1011.5mb 37f
7:10pm 2 3 mph 1011.5mb 38f
7:00pm 2 5 mph 1011.5mb 40f
6:40pm 2
mph
1011.9mb 40f
6:30pm  -  3 mph 1011.9mb 40f
6:20pm 2 3 mph 1011.9mb 41f
6:10pm 3 7 mph 1011.9mb 41f
6:00pm 3 7 mph 1011.9mb 42f
5:40pm 3 6 mph 1011.9mb 43f
5:30pm 3 8 mph 1011.9mb 44f
5:20pm 7 9 mph 1011.9mb 44f
5:10pm 8 10 mph 1011.9mb 46f
5:00pm 9 11 mph 1011.9mb 47f
4:40pm 7 11 mph 1011.5mb 45f
4:30pm 11 14 mph 1011.9mb 45f
4:20pm 13 15 mph 1011.9mb 46f
4:10pm 13 15 mph 1011.9mb 46f
4:00pm 14 15 mph 1011.9mb 47f
3:40pm 14 15 mph 1011.5mb 48f
3:30pm 13 14 mph 1011.5mb 48f
3:20pm 11 16 mph 1011.5mb 48f
3:10pm 14 17 mph 1011.9mb 49f
3:00pm 15 17 mph 1011.9mb 48f
2:40pm 17 18 mph 1011.9mb 48f
2:30pm 17 20 mph 1011.9mb 48f
2:20pm 16 18 mph 1011.9mb 48f
2:10pm 17 20 mph 1011.9mb 47f
2:00pm 16 17 mph 1011.9mb 48f
1:40pm 16 18 mph 1011.9mb 47f
1:30pm 16 18 mph 1011.9mb 47f
1:20pm 17 20 mph 1011.9mb 48f
1:10pm 17 21 mph 1011.9mb 48f
1:00pm 20 21 mph 1011.9mb 48f
12:40pm 18 20 mph 1011.5mb 48f
12:30pm 17 20 mph 1011.5mb 48f
12:20pm 16 18 mph 1011.9mb 48f
12:10pm 14 16 mph 1011.5mb 49f
12:00pm 16 17 mph 1011.9mb 49f
11:40am 17 20 mph 1011.5mb 49f
11:30am 16 20 mph 1011.5mb 48f
11:20am 15 20 mph 1011.9mb 48f
11:10am 17 20 mph 1011.9mb 47f
11:00am 17 21 mph 1011.9mb 47f
10:40am 18 21 mph 1011.9mb 46f
10:30am 18 21 mph 1011.5mb 47f
10:20am 16 28 mph 1011.9mb 47f
10:10am 17 21 mph 1011.5mb 47f
10:00am 15 18 mph 1011.5mb 47f
9:40am 17 21 mph 1011.5mb 46f
9:30am 16 18 mph 1011.2mb 46f
9:20am 15 21 mph 1011.2mb 46f
9:10am 16 20 mph 1011.2mb 45f
9:00am 16 22 mph 1011.2mb 44f
8:40am 24 29 mph 1010.8mb 43f
8:30am 26 30 mph 1010.8mb 44f
8:20am 23 28 mph 1010.5mb 46f
8:10am 24 29 mph 1010.5mb 46f
8:00am 25 29 mph 1010.5mb 46f
7:40am 18 21 mph 1010.5mb 46f
7:30am 8 11 mph 1010.5mb 43f
7:20am 7 11 mph 1010.5mb 44f
7:10am 3 11 mph 1010.5mb 45f
7:00am 2 9 mph 1010.2mb 47f